sensor_id;sensor_type;location;lat;lon;timestamp;P1;durP1;ratioP1;P2;durP2;ratioP2
24425;SDS011;12611;44.446;26.000;2022-09-03T00:00:34;6.87;;;3.33;;
24425;SDS011;12611;44.446;26.000;2022-09-03T00:03:07;6.43;;;3.50;;
24425;SDS011;12611;44.446;26.000;2022-09-03T00:05:40;6.63;;;3.30;;
24425;SDS011;12611;44.446;26.000;2022-09-03T00:08:16;10.13;;;3.27;;
24425;SDS011;12611;44.446;26.000;2022-09-03T00:10:50;6.97;;;3.47;;
24425;SDS011;12611;44.446;26.000;2022-09-03T00:13:23;7.80;;;3.57;;
24425;SDS011;12611;44.446;26.000;2022-09-03T00:15:55;6.40;;;3.57;;
24425;SDS011;12611;44.446;26.000;2022-09-03T00:18:26;5.97;;;3.37;;
24425;SDS011;12611;44.446;26.000;2022-09-03T00:20:58;6.87;;;3.53;;
24425;SDS011;12611;44.446;26.000;2022-09-03T00:23:36;8.70;;;3.73;;
24425;SDS011;12611;44.446;26.000;2022-09-03T00:26:15;6.30;;;3.10;;
24425;SDS011;12611;44.446;26.000;2022-09-03T00:28:53;6.17;;;3.00;;
24425;SDS011;12611;44.446;26.000;2022-09-03T00:31:27;6.83;;;3.00;;
24425;SDS011;12611;44.446;26.000;2022-09-03T00:33:59;6.57;;;3.63;;
24425;SDS011;12611;44.446;26.000;2022-09-03T00:36:33;8.53;;;3.53;;
24425;SDS011;12611;44.446;26.000;2022-09-03T00:39:09;9.20;;;3.97;;
24425;SDS011;12611;44.446;26.000;2022-09-03T00:41:39;6.20;;;3.13;;
24425;SDS011;12611;44.446;26.000;2022-09-03T00:44:36;6.20;;;3.53;;
24425;SDS011;12611;44.446;26.000;2022-09-03T00:47:22;6.40;;;3.33;;
24425;SDS011;12611;44.446;26.000;2022-09-03T00:49:59;7.50;;;3.50;;
24425;SDS011;12611;44.446;26.000;2022-09-03T00:52:40;8.03;;;3.50;;
24425;SDS011;12611;44.446;26.000;2022-09-03T00:55:23;6.60;;;3.33;;
24425;SDS011;12611;44.446;26.000;2022-09-03T00:58:03;5.13;;;3.20;;
24425;SDS011;12611;44.446;26.000;2022-09-03T01:00:48;5.43;;;3.33;;
24425;SDS011;12611;44.446;26.000;2022-09-03T01:03:21;8.47;;;2.80;;
24425;SDS011;12611;44.446;26.000;2022-09-03T01:06:05;6.73;;;3.43;;
24425;SDS011;12611;44.446;26.000;2022-09-03T01:08:49;8.37;;;3.17;;
24425;SDS011;12611;44.446;26.000;2022-09-03T01:11:31;5.47;;;3.03;;
24425;SDS011;12611;44.446;26.000;2022-09-03T01:14:14;5.27;;;3.00;;
24425;SDS011;12611;44.446;26.000;2022-09-03T01:16:52;7.47;;;3.73;;
24425;SDS011;12611;44.446;26.000;2022-09-03T01:19:37;6.13;;;2.90;;
24425;SDS011;12611;44.446;26.000;2022-09-03T01:22:23;7.00;;;3.17;;
24425;SDS011;12611;44.446;26.000;2022-09-03T01:25:11;7.47;;;3.20;;
24425;SDS011;12611;44.446;26.000;2022-09-03T01:27:47;9.43;;;3.33;;
24425;SDS011;12611;44.446;26.000;2022-09-03T01:30:39;4.70;;;3.00;;
24425;SDS011;12611;44.446;26.000;2022-09-03T01:33:16;8.83;;;3.00;;
24425;SDS011;12611;44.446;26.000;2022-09-03T01:35:52;5.03;;;2.87;;
24425;SDS011;12611;44.446;26.000;2022-09-03T01:38:31;5.73;;;3.00;;
24425;SDS011;12611;44.446;26.000;2022-09-03T01:41:09;5.70;;;2.90;;
24425;SDS011;12611;44.446;26.000;2022-09-03T01:44:08;6.10;;;3.10;;
24425;SDS011;12611;44.446;26.000;2022-09-03T01:46:43;7.13;;;3.57;;
24425;SDS011;12611;44.446;26.000;2022-09-03T01:49:18;7.10;;;2.87;;
24425;SDS011;12611;44.446;26.000;2022-09-03T01:51:53;7.37;;;2.77;;
24425;SDS011;12611;44.446;26.000;2022-09-03T01:54:34;5.33;;;3.00;;
24425;SDS011;12611;44.446;26.000;2022-09-03T01:57:26;7.60;;;2.60;;
24425;SDS011;12611;44.446;26.000;2022-09-03T02:00:05;6.60;;;2.80;;
24425;SDS011;12611;44.446;26.000;2022-09-03T02:02:37;5.77;;;2.73;;
24425;SDS011;12611;44.446;26.000;2022-09-03T02:05:07;7.30;;;2.43;;
24425;SDS011;12611;44.446;26.000;2022-09-03T02:07:37;8.53;;;3.17;;
24425;SDS011;12611;44.446;26.000;2022-09-03T02:10:10;6.30;;;2.40;;
24425;SDS011;12611;44.446;26.000;2022-09-03T02:12:40;4.30;;;2.63;;
24425;SDS011;12611;44.446;26.000;2022-09-03T02:15:15;5.70;;;2.70;;
24425;SDS011;12611;44.446;26.000;2022-09-03T02:17:45;5.23;;;2.87;;
24425;SDS011;12611;44.446;26.000;2022-09-03T02:20:16;8.67;;;3.00;;
24425;SDS011;12611;44.446;26.000;2022-09-03T02:22:48;6.33;;;2.90;;
24425;SDS011;12611;44.446;26.000;2022-09-03T02:25:17;6.40;;;2.70;;
24425;SDS011;12611;44.446;26.000;2022-09-03T02:27:47;6.40;;;2.77;;
24425;SDS011;12611;44.446;26.000;2022-09-03T02:30:18;5.33;;;2.63;;
24425;SDS011;12611;44.446;26.000;2022-09-03T02:32:47;8.07;;;3.10;;
24425;SDS011;12611;44.446;26.000;2022-09-03T02:35:15;9.13;;;3.10;;
24425;SDS011;12611;44.446;26.000;2022-09-03T02:37:43;6.63;;;2.90;;
24425;SDS011;12611;44.446;26.000;2022-09-03T02:40:12;6.93;;;3.00;;
24425;SDS011;12611;44.446;26.000;2022-09-03T02:42:40;8.00;;;3.13;;
24425;SDS011;12611;44.446;26.000;2022-09-03T02:45:11;7.33;;;2.73;;
24425;SDS011;12611;44.446;26.000;2022-09-03T02:47:49;6.57;;;2.50;;
24425;SDS011;12611;44.446;26.000;2022-09-03T02:50:20;5.60;;;2.70;;
24425;SDS011;12611;44.446;26.000;2022-09-03T02:52:49;6.97;;;3.43;;
24425;SDS011;12611;44.446;26.000;2022-09-03T02:55:18;6.77;;;2.60;;
24425;SDS011;12611;44.446;26.000;2022-09-03T02:57:47;6.80;;;3.30;;
24425;SDS011;12611;44.446;26.000;2022-09-03T03:00:16;5.30;;;2.80;;
24425;SDS011;12611;44.446;26.000;2022-09-03T03:02:44;6.83;;;2.83;;
24425;SDS011;12611;44.446;26.000;2022-09-03T03:05:17;5.13;;;2.83;;
24425;SDS011;12611;44.446;26.000;2022-09-03T03:07:53;4.77;;;2.37;;
24425;SDS011;12611;44.446;26.000;2022-09-03T03:10:23;6.67;;;2.50;;
24425;SDS011;12611;44.446;26.000;2022-09-03T03:12:52;5.60;;;2.43;;
24425;SDS011;12611;44.446;26.000;2022-09-03T03:15:21;8.57;;;2.70;;
24425;SDS011;12611;44.446;26.000;2022-09-03T03:17:50;5.00;;;2.60;;
24425;SDS011;12611;44.446;26.000;2022-09-03T03:20:19;5.73;;;2.83;;
24425;SDS011;12611;44.446;26.000;2022-09-03T03:22:48;4.43;;;2.40;;
24425;SDS011;12611;44.446;26.000;2022-09-03T03:25:16;3.93;;;2.40;;
24425;SDS011;12611;44.446;26.000;2022-09-03T03:27:45;6.77;;;2.60;;
24425;SDS011;12611;44.446;26.000;2022-09-03T03:30:13;5.97;;;2.67;;
24425;SDS011;12611;44.446;26.000;2022-09-03T03:32:42;4.13;;;2.60;;
24425;SDS011;12611;44.446;26.000;2022-09-03T03:35:10;5.67;;;2.97;;
24425;SDS011;12611;44.446;26.000;2022-09-03T03:37:40;5.67;;;2.90;;
24425;SDS011;12611;44.446;26.000;2022-09-03T03:40:09;6.23;;;2.53;;
24425;SDS011;12611;44.446;26.000;2022-09-03T03:42:38;6.27;;;2.60;;
24425;SDS011;12611;44.446;26.000;2022-09-03T03:45:06;6.10;;;3.00;;
24425;SDS011;12611;44.446;26.000;2022-09-03T03:47:36;6.37;;;2.77;;
24425;SDS011;12611;44.446;26.000;2022-09-03T03:50:04;4.47;;;2.57;;
24425;SDS011;12611;44.446;26.000;2022-09-03T03:52:33;5.87;;;3.20;;
24425;SDS011;12611;44.446;26.000;2022-09-03T03:55:04;5.90;;;2.87;;
24425;SDS011;12611;44.446;26.000;2022-09-03T03:57:33;5.87;;;3.07;;
24425;SDS011;12611;44.446;26.000;2022-09-03T04:00:02;4.67;;;2.43;;
24425;SDS011;12611;44.446;26.000;2022-09-03T04:02:32;5.17;;;2.83;;
24425;SDS011;12611;44.446;26.000;2022-09-03T04:05:04;6.10;;;2.40;;
24425;SDS011;12611;44.446;26.000;2022-09-03T04:07:33;6.97;;;2.60;;
24425;SDS011;12611;44.446;26.000;2022-09-03T04:10:04;6.07;;;2.87;;
24425;SDS011;12611;44.446;26.000;2022-09-03T04:12:34;5.45;;;3.25;;
24425;SDS011;12611;44.446;26.000;2022-09-03T04:15:02;3.87;;;2.30;;
24425;SDS011;12611;44.446;26.000;2022-09-03T04:17:32;9.53;;;3.30;;
24425;SDS011;12611;44.446;26.000;2022-09-03T04:20:00;9.30;;;2.87;;
24425;SDS011;12611;44.446;26.000;2022-09-03T04:22:29;8.40;;;2.80;;
24425;SDS011;12611;44.446;26.000;2022-09-03T04:24:58;5.13;;;2.40;;
24425;SDS011;12611;44.446;26.000;2022-09-03T04:27:27;6.10;;;2.53;;
24425;SDS011;12611;44.446;26.000;2022-09-03T04:29:56;4.43;;;2.47;;
24425;SDS011;12611;44.446;26.000;2022-09-03T04:32:24;4.37;;;2.23;;
24425;SDS011;12611;44.446;26.000;2022-09-03T04:35:11;8.00;;;3.00;;
24425;SDS011;12611;44.446;26.000;2022-09-03T04:37:40;5.63;;;3.17;;
24425;SDS011;12611;44.446;26.000;2022-09-03T04:40:08;6.87;;;3.00;;
24425;SDS011;12611;44.446;26.000;2022-09-03T04:42:38;7.60;;;3.30;;
24425;SDS011;12611;44.446;26.000;2022-09-03T04:45:07;7.33;;;2.73;;
24425;SDS011;12611;44.446;26.000;2022-09-03T04:47:37;6.13;;;2.80;;
24425;SDS011;12611;44.446;26.000;2022-09-03T04:50:05;7.37;;;3.17;;
24425;SDS011;12611;44.446;26.000;2022-09-03T04:52:34;6.33;;;2.90;;
24425;SDS011;12611;44.446;26.000;2022-09-03T04:55:04;4.43;;;2.77;;
24425;SDS011;12611;44.446;26.000;2022-09-03T04:57:33;3.53;;;2.43;;
24425;SDS011;12611;44.446;26.000;2022-09-03T05:00:05;5.97;;;2.60;;
24425;SDS011;12611;44.446;26.000;2022-09-03T05:02:36;6.07;;;2.43;;
24425;SDS011;12611;44.446;26.000;2022-09-03T05:05:05;4.73;;;2.50;;
24425;SDS011;12611;44.446;26.000;2022-09-03T05:07:33;6.57;;;2.80;;
24425;SDS011;12611;44.446;26.000;2022-09-03T05:10:04;4.97;;;2.47;;
24425;SDS011;12611;44.446;26.000;2022-09-03T05:12:34;4.43;;;2.73;;
24425;SDS011;12611;44.446;26.000;2022-09-03T05:15:03;6.47;;;2.73;;
24425;SDS011;12611;44.446;26.000;2022-09-03T05:17:33;5.40;;;2.63;;
24425;SDS011;12611;44.446;26.000;2022-09-03T05:20:04;6.60;;;3.40;;
24425;SDS011;12611;44.446;26.000;2022-09-03T05:22:33;4.07;;;2.37;;
24425;SDS011;12611;44.446;26.000;2022-09-03T05:25:02;7.03;;;2.80;;
24425;SDS011;12611;44.446;26.000;2022-09-03T05:27:31;6.00;;;2.90;;
24425;SDS011;12611;44.446;26.000;2022-09-03T05:30:02;5.07;;;2.63;;
24425;SDS011;12611;44.446;26.000;2022-09-03T05:32:36;11.20;;;2.73;;
24425;SDS011;12611;44.446;26.000;2022-09-03T05:35:08;7.10;;;2.93;;
24425;SDS011;12611;44.446;26.000;2022-09-03T05:37:42;5.37;;;2.57;;
24425;SDS011;12611;44.446;26.000;2022-09-03T05:40:11;3.83;;;2.53;;
24425;SDS011;12611;44.446;26.000;2022-09-03T05:42:39;6.30;;;2.47;;
24425;SDS011;12611;44.446;26.000;2022-09-03T05:45:21;5.03;;;3.40;;
24425;SDS011;12611;44.446;26.000;2022-09-03T05:47:50;5.97;;;2.60;;
24425;SDS011;12611;44.446;26.000;2022-09-03T05:50:19;6.10;;;2.90;;
24425;SDS011;12611;44.446;26.000;2022-09-03T05:52:47;5.00;;;2.73;;
24425;SDS011;12611;44.446;26.000;2022-09-03T05:55:19;6.77;;;2.87;;
24425;SDS011;12611;44.446;26.000;2022-09-03T05:57:50;5.60;;;2.63;;
24425;SDS011;12611;44.446;26.000;2022-09-03T06:00:23;6.33;;;2.67;;
24425;SDS011;12611;44.446;26.000;2022-09-03T06:02:52;5.20;;;2.30;;
24425;SDS011;12611;44.446;26.000;2022-09-03T06:05:21;7.67;;;2.93;;
24425;SDS011;12611;44.446;26.000;2022-09-03T06:07:50;6.23;;;2.47;;
24425;SDS011;12611;44.446;26.000;2022-09-03T06:10:23;6.27;;;2.47;;
24425;SDS011;12611;44.446;26.000;2022-09-03T06:13:10;7.97;;;2.60;;
24425;SDS011;12611;44.446;26.000;2022-09-03T06:15:43;7.57;;;2.83;;
24425;SDS011;12611;44.446;26.000;2022-09-03T06:18:14;6.27;;;2.97;;
24425;SDS011;12611;44.446;26.000;2022-09-03T06:20:43;8.17;;;2.83;;
24425;SDS011;12611;44.446;26.000;2022-09-03T06:23:26;5.93;;;2.93;;
24425;SDS011;12611;44.446;26.000;2022-09-03T06:25:59;6.07;;;2.37;;
24425;SDS011;12611;44.446;26.000;2022-09-03T06:28:31;3.93;;;2.33;;
24425;SDS011;12611;44.446;26.000;2022-09-03T06:31:01;6.13;;;2.90;;
24425;SDS011;12611;44.446;26.000;2022-09-03T06:33:35;6.80;;;2.93;;
24425;SDS011;12611;44.446;26.000;2022-09-03T06:36:05;5.17;;;2.90;;
24425;SDS011;12611;44.446;26.000;2022-09-03T06:38:35;6.13;;;2.97;;
24425;SDS011;12611;44.446;26.000;2022-09-03T06:41:05;5.07;;;2.43;;
24425;SDS011;12611;44.446;26.000;2022-09-03T06:43:36;4.33;;;2.87;;
24425;SDS011;12611;44.446;26.000;2022-09-03T06:46:08;7.47;;;3.37;;
24425;SDS011;12611;44.446;26.000;2022-09-03T06:48:38;7.67;;;3.07;;
24425;SDS011;12611;44.446;26.000;2022-09-03T06:51:11;6.50;;;2.77;;
24425;SDS011;12611;44.446;26.000;2022-09-03T06:53:41;5.90;;;3.27;;
24425;SDS011;12611;44.446;26.000;2022-09-03T06:56:12;10.00;;;3.63;;
24425;SDS011;12611;44.446;26.000;2022-09-03T06:58:42;6.93;;;3.07;;
24425;SDS011;12611;44.446;26.000;2022-09-03T07:01:14;7.07;;;3.00;;
24425;SDS011;12611;44.446;26.000;2022-09-03T07:03:45;7.13;;;3.10;;
24425;SDS011;12611;44.446;26.000;2022-09-03T07:06:15;6.30;;;3.20;;
24425;SDS011;12611;44.446;26.000;2022-09-03T07:08:45;4.90;;;2.37;;
24425;SDS011;12611;44.446;26.000;2022-09-03T07:11:14;7.97;;;2.60;;
24425;SDS011;12611;44.446;26.000;2022-09-03T07:13:45;4.07;;;2.40;;
24425;SDS011;12611;44.446;26.000;2022-09-03T07:16:16;7.17;;;2.70;;
24425;SDS011;12611;44.446;26.000;2022-09-03T07:18:45;4.57;;;2.60;;
24425;SDS011;12611;44.446;26.000;2022-09-03T07:21:15;5.93;;;2.37;;
24425;SDS011;12611;44.446;26.000;2022-09-03T07:23:46;7.70;;;2.47;;
24425;SDS011;12611;44.446;26.000;2022-09-03T07:26:15;5.33;;;2.03;;
24425;SDS011;12611;44.446;26.000;2022-09-03T07:28:45;7.13;;;3.00;;
24425;SDS011;12611;44.446;26.000;2022-09-03T07:31:17;10.47;;;3.20;;
24425;SDS011;12611;44.446;26.000;2022-09-03T07:33:52;6.87;;;3.47;;
24425;SDS011;12611;44.446;26.000;2022-09-03T07:36:22;5.53;;;2.97;;
24425;SDS011;12611;44.446;26.000;2022-09-03T07:38:53;7.10;;;2.73;;
24425;SDS011;12611;44.446;26.000;2022-09-03T07:41:23;6.17;;;2.40;;
24425;SDS011;12611;44.446;26.000;2022-09-03T07:43:54;5.97;;;2.10;;
24425;SDS011;12611;44.446;26.000;2022-09-03T07:46:25;7.97;;;2.57;;
24425;SDS011;12611;44.446;26.000;2022-09-03T07:48:55;4.80;;;2.60;;
24425;SDS011;12611;44.446;26.000;2022-09-03T07:51:25;6.73;;;2.63;;
24425;SDS011;12611;44.446;26.000;2022-09-03T07:53:56;6.23;;;2.97;;
24425;SDS011;12611;44.446;26.000;2022-09-03T07:56:25;4.27;;;2.40;;
24425;SDS011;12611;44.446;26.000;2022-09-03T07:58:56;5.93;;;2.40;;
24425;SDS011;12611;44.446;26.000;2022-09-03T08:01:27;5.77;;;2.47;;
24425;SDS011;12611;44.446;26.000;2022-09-03T08:03:56;7.27;;;2.50;;
24425;SDS011;12611;44.446;26.000;2022-09-03T08:06:26;5.47;;;2.63;;
24425;SDS011;12611;44.446;26.000;2022-09-03T08:08:57;6.10;;;2.30;;
24425;SDS011;12611;44.446;26.000;2022-09-03T08:11:30;3.60;;;2.53;;
24425;SDS011;12611;44.446;26.000;2022-09-03T08:14:01;5.13;;;2.47;;
24425;SDS011;12611;44.446;26.000;2022-09-03T08:16:34;5.63;;;2.30;;
24425;SDS011;12611;44.446;26.000;2022-09-03T08:19:04;5.00;;;2.43;;
24425;SDS011;12611;44.446;26.000;2022-09-03T08:21:33;4.03;;;2.30;;
24425;SDS011;12611;44.446;26.000;2022-09-03T08:24:02;10.60;;;3.10;;
24425;SDS011;12611;44.446;26.000;2022-09-03T08:26:32;4.63;;;2.47;;
24425;SDS011;12611;44.446;26.000;2022-09-03T08:29:01;5.37;;;2.77;;
24425;SDS011;12611;44.446;26.000;2022-09-03T08:31:30;6.93;;;2.50;;
24425;SDS011;12611;44.446;26.000;2022-09-03T08:34:01;3.67;;;2.23;;
24425;SDS011;12611;44.446;26.000;2022-09-03T08:36:33;3.47;;;2.17;;
24425;SDS011;12611;44.446;26.000;2022-09-03T08:39:03;4.07;;;2.13;;
24425;SDS011;12611;44.446;26.000;2022-09-03T08:41:52;4.00;;;2.43;;
24425;SDS011;12611;44.446;26.000;2022-09-03T08:44:40;4.60;;;1.67;;
24425;SDS011;12611;44.446;26.000;2022-09-03T08:47:14;4.67;;;2.10;;
24425;SDS011;12611;44.446;26.000;2022-09-03T08:49:48;5.47;;;2.17;;
24425;SDS011;12611;44.446;26.000;2022-09-03T08:52:22;3.33;;;1.53;;
24425;SDS011;12611;44.446;26.000;2022-09-03T08:54:57;5.07;;;2.07;;
24425;SDS011;12611;44.446;26.000;2022-09-03T08:57:31;3.53;;;1.50;;
24425;SDS011;12611;44.446;26.000;2022-09-03T09:00:08;5.53;;;1.97;;
24425;SDS011;12611;44.446;26.000;2022-09-03T09:02:40;4.53;;;1.70;;
24425;SDS011;12611;44.446;26.000;2022-09-03T09:05:30;3.60;;;2.10;;
24425;SDS011;12611;44.446;26.000;2022-09-03T09:08:11;4.33;;;2.00;;
24425;SDS011;12611;44.446;26.000;2022-09-03T09:10:48;2.90;;;1.93;;
24425;SDS011;12611;44.446;26.000;2022-09-03T09:13:26;4.40;;;1.93;;
24425;SDS011;12611;44.446;26.000;2022-09-03T09:16:01;3.87;;;2.13;;
24425;SDS011;12611;44.446;26.000;2022-09-03T09:18:38;2.97;;;2.00;;
24425;SDS011;12611;44.446;26.000;2022-09-03T09:21:22;3.10;;;1.60;;
24425;SDS011;12611;44.446;26.000;2022-09-03T09:23:55;5.67;;;1.73;;
24425;SDS011;12611;44.446;26.000;2022-09-03T09:26:28;4.33;;;1.73;;
24425;SDS011;12611;44.446;26.000;2022-09-03T09:28:57;2.90;;;1.53;;
24425;SDS011;12611;44.446;26.000;2022-09-03T09:31:29;3.90;;;1.63;;
24425;SDS011;12611;44.446;26.000;2022-09-03T09:34:00;2.00;;;1.20;;
24425;SDS011;12611;44.446;26.000;2022-09-03T09:36:44;2.50;;;1.57;;
24425;SDS011;12611;44.446;26.000;2022-09-03T09:39:14;3.07;;;1.50;;
24425;SDS011;12611;44.446;26.000;2022-09-03T09:41:53;1.90;;;1.20;;
24425;SDS011;12611;44.446;26.000;2022-09-03T09:44:24;2.47;;;1.33;;
24425;SDS011;12611;44.446;26.000;2022-09-03T09:47:00;3.43;;;1.30;;
24425;SDS011;12611;44.446;26.000;2022-09-03T09:49:33;2.37;;;1.53;;
24425;SDS011;12611;44.446;26.000;2022-09-03T09:52:09;3.70;;;1.50;;
24425;SDS011;12611;44.446;26.000;2022-09-03T09:54:39;1.80;;;1.30;;
24425;SDS011;12611;44.446;26.000;2022-09-03T09:57:13;4.77;;;1.30;;
24425;SDS011;12611;44.446;26.000;2022-09-03T09:59:43;3.00;;;1.50;;
24425;SDS011;12611;44.446;26.000;2022-09-03T10:02:13;2.17;;;1.57;;
24425;SDS011;12611;44.446;26.000;2022-09-03T10:04:54;4.03;;;1.30;;
24425;SDS011;12611;44.446;26.000;2022-09-03T10:07:29;2.17;;;1.30;;
24425;SDS011;12611;44.446;26.000;2022-09-03T10:09:59;2.90;;;1.50;;
24425;SDS011;12611;44.446;26.000;2022-09-03T10:12:30;2.83;;;1.40;;
24425;SDS011;12611;44.446;26.000;2022-09-03T10:15:06;2.17;;;1.33;;
24425;SDS011;12611;44.446;26.000;2022-09-03T10:17:42;5.05;;;1.58;;
24425;SDS011;12611;44.446;26.000;2022-09-03T10:20:21;3.30;;;1.47;;
24425;SDS011;12611;44.446;26.000;2022-09-03T10:23:00;1.97;;;1.30;;
24425;SDS011;12611;44.446;26.000;2022-09-03T10:25:37;2.47;;;1.60;;
24425;SDS011;12611;44.446;26.000;2022-09-03T10:28:13;3.80;;;1.60;;
24425;SDS011;12611;44.446;26.000;2022-09-03T10:30:48;3.10;;;1.70;;
24425;SDS011;12611;44.446;26.000;2022-09-03T10:33:25;5.13;;;1.30;;
24425;SDS011;12611;44.446;26.000;2022-09-03T10:36:01;2.80;;;1.60;;
24425;SDS011;12611;44.446;26.000;2022-09-03T10:38:37;2.40;;;1.30;;
24425;SDS011;12611;44.446;26.000;2022-09-03T10:41:09;2.70;;;1.50;;
24425;SDS011;12611;44.446;26.000;2022-09-03T10:43:58;2.00;;;1.43;;
24425;SDS011;12611;44.446;26.000;2022-09-03T10:46:44;3.63;;;1.73;;
24425;SDS011;12611;44.446;26.000;2022-09-03T10:49:23;3.10;;;1.87;;
24425;SDS011;12611;44.446;26.000;2022-09-03T10:52:01;6.20;;;1.80;;
24425;SDS011;12611;44.446;26.000;2022-09-03T10:54:39;4.60;;;1.80;;
24425;SDS011;12611;44.446;26.000;2022-09-03T10:57:18;2.45;;;1.50;;
24425;SDS011;12611;44.446;26.000;2022-09-03T11:00:07;5.90;;;1.90;;
24425;SDS011;12611;44.446;26.000;2022-09-03T11:05:38;3.50;;;1.73;;
24425;SDS011;12611;44.446;26.000;2022-09-03T11:08:11;6.57;;;2.23;;
24425;SDS011;12611;44.446;26.000;2022-09-03T11:10:47;4.70;;;1.90;;
24425;SDS011;12611;44.446;26.000;2022-09-03T11:13:20;3.37;;;1.77;;
24425;SDS011;12611;44.446;26.000;2022-09-03T11:15:52;4.40;;;1.73;;
24425;SDS011;12611;44.446;26.000;2022-09-03T11:18:25;4.17;;;2.20;;
24425;SDS011;12611;44.446;26.000;2022-09-03T11:21:00;3.83;;;1.80;;
24425;SDS011;12611;44.446;26.000;2022-09-03T11:23:38;4.20;;;2.17;;
24425;SDS011;12611;44.446;26.000;2022-09-03T11:26:11;5.35;;;2.35;;
24425;SDS011;12611;44.446;26.000;2022-09-03T11:28:42;3.08;;;1.90;;
24425;SDS011;12611;44.446;26.000;2022-09-03T11:31:21;5.43;;;1.83;;
24425;SDS011;12611;44.446;26.000;2022-09-03T11:33:57;4.47;;;2.07;;
24425;SDS011;12611;44.446;26.000;2022-09-03T11:36:29;2.55;;;1.95;;
24425;SDS011;12611;44.446;26.000;2022-09-03T11:38:58;2.92;;;1.92;;
24425;SDS011;12611;44.446;26.000;2022-09-03T11:41:30;4.22;;;1.80;;
24425;SDS011;12611;44.446;26.000;2022-09-03T11:44:10;4.85;;;2.08;;
24425;SDS011;12611;44.446;26.000;2022-09-03T11:46:53;3.95;;;1.73;;
24425;SDS011;12611;44.446;26.000;2022-09-03T11:49:27;3.63;;;2.13;;
24425;SDS011;12611;44.446;26.000;2022-09-03T11:51:58;5.65;;;2.63;;
24425;SDS011;12611;44.446;26.000;2022-09-03T11:54:30;6.60;;;2.30;;
24425;SDS011;12611;44.446;26.000;2022-09-03T11:57:10;5.03;;;2.58;;
24425;SDS011;12611;44.446;26.000;2022-09-03T11:59:41;4.60;;;2.42;;
24425;SDS011;12611;44.446;26.000;2022-09-03T12:02:21;3.75;;;2.30;;
24425;SDS011;12611;44.446;26.000;2022-09-03T12:04:58;3.53;;;2.33;;
24425;SDS011;12611;44.446;26.000;2022-09-03T12:07:44;4.72;;;2.40;;
24425;SDS011;12611;44.446;26.000;2022-09-03T12:10:33;3.97;;;1.83;;
24425;SDS011;12611;44.446;26.000;2022-09-03T12:19:02;6.07;;;2.38;;
24425;SDS011;12611;44.446;26.000;2022-09-03T12:21:38;4.20;;;2.28;;
24425;SDS011;12611;44.446;26.000;2022-09-03T12:24:09;3.70;;;2.08;;
24425;SDS011;12611;44.446;26.000;2022-09-03T12:26:41;5.90;;;2.00;;
24425;SDS011;12611;44.446;26.000;2022-09-03T12:29:21;5.68;;;2.20;;
24425;SDS011;12611;44.446;26.000;2022-09-03T12:31:53;8.57;;;2.15;;
24425;SDS011;12611;44.446;26.000;2022-09-03T12:34:23;5.82;;;2.60;;
24425;SDS011;12611;44.446;26.000;2022-09-03T12:36:53;4.63;;;2.30;;
24425;SDS011;12611;44.446;26.000;2022-09-03T12:39:22;4.15;;;2.35;;
24425;SDS011;12611;44.446;26.000;2022-09-03T12:42:12;2.92;;;1.80;;
24425;SDS011;12611;44.446;26.000;2022-09-03T12:44:48;5.32;;;1.70;;
24425;SDS011;12611;44.446;26.000;2022-09-03T12:47:16;3.03;;;1.73;;
24425;SDS011;12611;44.446;26.000;2022-09-03T12:50:05;3.85;;;1.67;;
24425;SDS011;12611;44.446;26.000;2022-09-03T12:52:37;2.95;;;1.77;;
24425;SDS011;12611;44.446;26.000;2022-09-03T12:55:12;3.22;;;1.60;;
24425;SDS011;12611;44.446;26.000;2022-09-03T12:57:53;3.55;;;1.70;;
24425;SDS011;12611;44.446;26.000;2022-09-03T13:00:29;5.78;;;2.35;;
24425;SDS011;12611;44.446;26.000;2022-09-03T13:03:01;3.25;;;1.70;;
24425;SDS011;12611;44.446;26.000;2022-09-03T13:05:33;2.42;;;1.60;;
24425;SDS011;12611;44.446;26.000;2022-09-03T13:08:07;2.83;;;1.63;;
24425;SDS011;12611;44.446;26.000;2022-09-03T13:10:41;2.63;;;1.55;;
24425;SDS011;12611;44.446;26.000;2022-09-03T13:13:16;3.70;;;1.80;;
24425;SDS011;12611;44.446;26.000;2022-09-03T13:15:56;4.10;;;1.98;;
24425;SDS011;12611;44.446;26.000;2022-09-03T13:18:37;3.53;;;2.00;;
24425;SDS011;12611;44.446;26.000;2022-09-03T13:21:14;4.78;;;1.42;;
24425;SDS011;12611;44.446;26.000;2022-09-03T13:23:52;3.03;;;1.45;;
24425;SDS011;12611;44.446;26.000;2022-09-03T13:26:28;4.13;;;1.60;;
24425;SDS011;12611;44.446;26.000;2022-09-03T13:29:12;3.70;;;1.65;;
24425;SDS011;12611;44.446;26.000;2022-09-03T13:31:51;2.00;;;1.40;;
24425;SDS011;12611;44.446;26.000;2022-09-03T13:34:30;5.03;;;1.67;;
24425;SDS011;12611;44.446;26.000;2022-09-03T13:37:06;5.18;;;1.90;;
24425;SDS011;12611;44.446;26.000;2022-09-03T13:39:45;2.92;;;1.70;;
24425;SDS011;12611;44.446;26.000;2022-09-03T13:42:20;3.75;;;1.73;;
24425;SDS011;12611;44.446;26.000;2022-09-03T13:44:54;4.15;;;1.92;;
24425;SDS011;12611;44.446;26.000;2022-09-03T13:47:34;3.03;;;1.98;;
24425;SDS011;12611;44.446;26.000;2022-09-03T13:50:27;6.55;;;2.17;;
24425;SDS011;12611;44.446;26.000;2022-09-03T13:52:57;5.85;;;2.20;;
24425;SDS011;12611;44.446;26.000;2022-09-03T13:55:34;3.15;;;1.58;;
24425;SDS011;12611;44.446;26.000;2022-09-03T13:58:10;3.88;;;1.60;;
24425;SDS011;12611;44.446;26.000;2022-09-03T14:00:49;3.40;;;1.83;;
24425;SDS011;12611;44.446;26.000;2022-09-03T14:03:32;3.63;;;1.70;;
24425;SDS011;12611;44.446;26.000;2022-09-03T14:06:06;4.05;;;1.92;;
24425;SDS011;12611;44.446;26.000;2022-09-03T14:08:44;5.13;;;1.83;;
24425;SDS011;12611;44.446;26.000;2022-09-03T14:11:27;3.40;;;1.75;;
24425;SDS011;12611;44.446;26.000;2022-09-03T14:14:05;5.10;;;1.90;;
24425;SDS011;12611;44.446;26.000;2022-09-03T14:16:44;3.67;;;2.40;;
24425;SDS011;12611;44.446;26.000;2022-09-03T14:19:22;4.63;;;2.72;;
24425;SDS011;12611;44.446;26.000;2022-09-03T14:22:04;4.13;;;2.20;;
24425;SDS011;12611;44.446;26.000;2022-09-03T14:24:42;4.35;;;2.30;;
24425;SDS011;12611;44.446;26.000;2022-09-03T14:27:21;5.38;;;1.95;;
24425;SDS011;12611;44.446;26.000;2022-09-03T14:29:52;3.17;;;1.85;;
24425;SDS011;12611;44.446;26.000;2022-09-03T14:32:29;2.60;;;1.77;;
24425;SDS011;12611;44.446;26.000;2022-09-03T14:35:17;4.45;;;2.00;;
24425;SDS011;12611;44.446;26.000;2022-09-03T14:38:16;3.28;;;1.65;;
24425;SDS011;12611;44.446;26.000;2022-09-03T14:41:20;3.30;;;1.70;;
24425;SDS011;12611;44.446;26.000;2022-09-03T14:44:05;4.35;;;2.30;;
24425;SDS011;12611;44.446;26.000;2022-09-03T14:46:56;4.25;;;1.83;;
24425;SDS011;12611;44.446;26.000;2022-09-03T14:49:50;5.60;;;1.88;;
24425;SDS011;12611;44.446;26.000;2022-09-03T14:52:35;4.50;;;1.92;;
24425;SDS011;12611;44.446;26.000;2022-09-03T14:55:28;4.05;;;1.98;;
24425;SDS011;12611;44.446;26.000;2022-09-03T14:58:31;3.47;;;2.00;;
24425;SDS011;12611;44.446;26.000;2022-09-03T15:01:09;5.35;;;2.05;;
24425;SDS011;12611;44.446;26.000;2022-09-03T15:07:01;4.95;;;2.55;;
24425;SDS011;12611;44.446;26.000;2022-09-03T15:09:45;4.43;;;1.80;;
24425;SDS011;12611;44.446;26.000;2022-09-03T15:12:30;2.92;;;1.75;;
24425;SDS011;12611;44.446;26.000;2022-09-03T15:15:04;3.38;;;2.20;;
24425;SDS011;12611;44.446;26.000;2022-09-03T15:17:45;3.30;;;2.13;;
24425;SDS011;12611;44.446;26.000;2022-09-03T15:20:23;5.32;;;2.00;;
24425;SDS011;12611;44.446;26.000;2022-09-03T15:23:14;4.60;;;2.10;;
24425;SDS011;12611;44.446;26.000;2022-09-03T15:26:04;3.88;;;1.88;;
24425;SDS011;12611;44.446;26.000;2022-09-03T15:28:57;3.40;;;2.08;;